createdAt,value
2023-12-12T00:01:26.084Z,11.80
2023-12-12T00:03:53.578Z,11.80
2023-12-12T00:06:20.906Z,11.80
2023-12-12T00:08:48.733Z,11.80
2023-12-12T00:11:16.132Z,11.80
2023-12-12T00:13:43.454Z,11.80
2023-12-12T00:16:10.964Z,11.80
2023-12-12T00:18:38.580Z,11.80
2023-12-12T00:21:07.432Z,11.80
2023-12-12T00:23:34.773Z,11.80
2023-12-12T00:26:01.992Z,11.80
2023-12-12T00:28:29.262Z,11.80
2023-12-12T00:30:56.486Z,11.70
2023-12-12T00:33:23.773Z,11.70
2023-12-12T00:35:51.008Z,11.70
2023-12-12T00:38:18.187Z,11.70
2023-12-12T00:40:54.797Z,11.80
2023-12-12T00:43:23.700Z,11.70
2023-12-12T00:45:51.165Z,11.80
2023-12-12T00:48:21.596Z,11.70
2023-12-12T00:50:51.286Z,11.70
2023-12-12T00:53:18.454Z,11.80
2023-12-12T00:55:45.615Z,11.80
2023-12-12T00:58:12.753Z,11.80
2023-12-12T01:00:39.909Z,11.70
2023-12-12T01:03:07.166Z,11.70
2023-12-12T01:05:34.292Z,11.80
2023-12-12T01:08:01.408Z,11.70
2023-12-12T01:10:28.731Z,11.70
2023-12-12T01:12:55.962Z,11.80
2023-12-12T01:15:23.103Z,11.80
2023-12-12T01:17:50.439Z,11.80
2023-12-12T01:20:18.312Z,11.70
2023-12-12T01:22:45.384Z,11.70
2023-12-12T01:25:12.621Z,11.70
2023-12-12T01:27:40.183Z,11.70
2023-12-12T01:30:08.343Z,11.60
2023-12-12T01:32:35.603Z,11.60
2023-12-12T01:35:03.021Z,11.60
2023-12-12T01:37:30.442Z,11.50
2023-12-12T01:39:57.823Z,11.50
2023-12-12T01:42:25.018Z,11.40
2023-12-12T01:44:52.289Z,11.30
2023-12-12T01:47:19.736Z,11.30
2023-12-12T01:50:07.246Z,11.30
2023-12-12T01:53:15.066Z,11.30
2023-12-12T01:55:43.011Z,11.20
2023-12-12T01:58:11.788Z,11.20
2023-12-12T02:00:39.729Z,11.20
2023-12-12T02:03:07.399Z,11.10
2023-12-12T02:05:38.667Z,11.10
2023-12-12T02:08:05.896Z,11.10
2023-12-12T02:10:33.094Z,11.00
2023-12-12T02:13:00.381Z,11.00
2023-12-12T02:15:30.200Z,10.90
2023-12-12T02:17:57.360Z,10.90
2023-12-12T02:20:24.748Z,10.80
2023-12-12T02:22:51.913Z,10.80
2023-12-12T02:25:20.198Z,10.80
2023-12-12T02:27:48.581Z,10.70
2023-12-12T02:30:17.693Z,10.70
2023-12-12T02:32:44.911Z,10.60
2023-12-12T02:35:12.069Z,10.60
2023-12-12T02:37:39.640Z,10.60
2023-12-12T02:40:07.990Z,10.60
2023-12-12T02:42:35.245Z,10.60
2023-12-12T02:45:02.595Z,10.60
2023-12-12T02:47:30.514Z,10.60
2023-12-12T02:49:58.224Z,10.70
2023-12-12T02:52:25.518Z,10.70
2023-12-12T02:54:52.669Z,10.70
2023-12-12T02:57:20.099Z,10.70
2023-12-12T02:59:47.249Z,10.70
2023-12-12T03:02:14.679Z,10.80
2023-12-12T03:04:45.798Z,10.80
2023-12-12T03:07:13.793Z,10.80
2023-12-12T03:09:41.095Z,10.80
2023-12-12T03:12:08.283Z,10.80
2023-12-12T03:14:37.471Z,10.80
2023-12-12T03:17:05.145Z,10.80
2023-12-12T03:19:33.273Z,10.80
2023-12-12T03:22:00.885Z,10.70
2023-12-12T03:24:29.823Z,10.70
2023-12-12T03:26:57.053Z,10.60
2023-12-12T03:29:24.335Z,10.60
2023-12-12T03:31:51.554Z,10.60
2023-12-12T03:34:20.643Z,10.60
2023-12-12T03:36:48.566Z,10.50
2023-12-12T03:39:16.141Z,10.40
2023-12-12T03:41:44.870Z,10.40
2023-12-12T03:44:12.001Z,10.40
2023-12-12T03:46:39.264Z,10.30
2023-12-12T03:49:06.497Z,10.20
2023-12-12T03:51:33.761Z,10.20
2023-12-12T03:54:00.937Z,10.10
2023-12-12T03:56:28.130Z,10.10
2023-12-12T03:58:55.395Z,10.00
2023-12-12T04:01:23.476Z,10.00
2023-12-12T04:03:51.062Z,10.00
2023-12-12T04:06:18.246Z,9.90
2023-12-12T04:08:45.409Z,9.90
2023-12-12T04:11:12.473Z,9.90
2023-12-12T04:13:39.697Z,9.90
2023-12-12T04:16:07.329Z,9.80
2023-12-12T04:18:34.715Z,9.70
2023-12-12T04:21:01.923Z,9.70
2023-12-12T04:23:29.321Z,9.70
2023-12-12T04:25:56.523Z,9.70
2023-12-12T04:28:24.220Z,9.60
2023-12-12T04:30:51.623Z,9.60
2023-12-12T04:33:19.113Z,9.60
2023-12-12T04:35:46.470Z,9.60
2023-12-12T04:38:13.703Z,9.60
2023-12-12T04:40:41.217Z,9.60
2023-12-12T04:43:08.441Z,9.60
2023-12-12T04:45:35.605Z,9.60
2023-12-12T04:48:02.981Z,9.60
2023-12-12T04:50:30.545Z,9.60
2023-12-12T04:52:57.735Z,9.50
2023-12-12T04:55:25.008Z,9.50
2023-12-12T04:57:52.272Z,9.50
2023-12-12T05:00:19.913Z,9.50
2023-12-12T05:02:47.138Z,9.50
2023-12-12T05:05:34.320Z,9.50
2023-12-12T05:08:04.831Z,9.50
2023-12-12T05:10:32.434Z,9.40
2023-12-12T05:13:01.020Z,9.40
2023-12-12T05:15:30.174Z,9.40
2023-12-12T05:17:57.459Z,9.40
2023-12-12T05:20:24.845Z,9.40
2023-12-12T05:22:52.097Z,9.40
2023-12-12T05:25:24.404Z,9.40
2023-12-12T05:27:53.161Z,9.50
2023-12-12T05:30:23.436Z,9.50
2023-12-12T05:32:53.667Z,9.50
2023-12-12T05:35:21.273Z,9.50
2023-12-12T05:37:48.568Z,9.60
2023-12-12T05:40:16.046Z,9.60
2023-12-12T05:42:44.593Z,9.60
2023-12-12T05:45:12.033Z,9.70
2023-12-12T05:47:39.418Z,9.70
2023-12-12T05:50:07.331Z,9.70
2023-12-12T05:52:34.624Z,9.70
2023-12-12T05:55:01.989Z,9.80
2023-12-12T06:01:40.747Z,9.90
2023-12-12T06:04:08.929Z,9.90
2023-12-12T06:06:43.697Z,10.00
2023-12-12T06:09:14.909Z,10.00
2023-12-12T06:11:43.477Z,10.00
2023-12-12T06:14:11.522Z,10.00
2023-12-12T06:16:39.534Z,10.10
2023-12-12T06:19:07.386Z,10.10
2023-12-12T06:22:12.375Z,10.10
2023-12-12T06:24:39.749Z,10.10
2023-12-12T06:27:06.901Z,10.20
2023-12-12T06:29:34.014Z,10.20
2023-12-12T06:32:04.174Z,10.20
2023-12-12T06:34:31.786Z,10.20
2023-12-12T06:37:01.324Z,10.20
2023-12-12T06:39:29.867Z,10.30
2023-12-12T06:41:57.117Z,10.30
2023-12-12T06:44:24.244Z,10.30
2023-12-12T06:46:54.096Z,10.30
2023-12-12T06:49:23.710Z,10.40
2023-12-12T06:51:51.667Z,10.40
2023-12-12T06:54:24.566Z,10.40
2023-12-12T06:56:51.977Z,10.50
2023-12-12T06:59:19.535Z,10.40
2023-12-12T07:01:46.738Z,10.40
2023-12-12T07:04:14.448Z,10.50
2023-12-12T07:06:45.305Z,10.40
2023-12-12T07:09:13.911Z,10.50
2023-12-12T07:11:41.143Z,10.40
2023-12-12T07:14:09.542Z,10.40
2023-12-12T07:16:36.866Z,10.40
2023-12-12T07:19:04.540Z,10.40
2023-12-12T07:21:38.664Z,10.30
2023-12-12T07:24:06.522Z,10.30
2023-12-12T07:26:34.562Z,10.20
2023-12-12T07:29:04.737Z,10.10
2023-12-12T07:31:35.837Z,10.00
2023-12-12T07:34:03.463Z,10.00
2023-12-12T07:36:30.849Z,9.90
2023-12-12T07:39:02.250Z,9.80
2023-12-12T07:41:36.368Z,9.80
2023-12-12T07:44:05.336Z,9.70
2023-12-12T07:46:39.505Z,9.70
2023-12-12T07:49:12.810Z,9.70
2023-12-12T07:51:40.436Z,9.70
2023-12-12T07:54:08.145Z,9.80
2023-12-12T07:56:35.411Z,9.80
2023-12-12T07:59:05.788Z,9.90
2023-12-12T08:01:33.510Z,9.90
2023-12-12T08:04:01.123Z,10.00
2023-12-12T08:06:28.534Z,10.00
2023-12-12T08:08:56.301Z,10.10
2023-12-12T08:11:26.091Z,10.10
2023-12-12T08:13:53.381Z,10.20
2023-12-12T08:16:20.712Z,10.20
2023-12-12T08:18:49.346Z,10.30
2023-12-12T08:21:16.684Z,10.30
2023-12-12T08:23:44.065Z,10.40
2023-12-12T08:26:14.286Z,10.40
2023-12-12T08:28:41.990Z,10.40
2023-12-12T08:31:09.344Z,10.50
2023-12-12T08:33:37.039Z,10.60
2023-12-12T08:36:05.255Z,10.60
2023-12-12T08:38:34.915Z,10.60
2023-12-12T08:41:02.518Z,10.70
2023-12-12T08:43:29.939Z,10.80
2023-12-12T08:45:57.863Z,10.80
2023-12-12T08:48:25.334Z,10.90
2023-12-12T08:50:53.159Z,11.00
2023-12-12T08:53:28.322Z,11.00
2023-12-12T08:55:56.625Z,11.10
2023-12-12T08:58:27.180Z,11.10
2023-12-12T09:00:55.628Z,11.20
2023-12-12T09:03:23.372Z,11.30
2023-12-12T09:05:50.900Z,11.30
2023-12-12T09:08:18.267Z,11.40
2023-12-12T09:10:45.466Z,11.40
2023-12-12T09:13:12.984Z,11.40
2023-12-12T09:15:40.271Z,11.50
2023-12-12T09:18:16.787Z,11.50
2023-12-12T09:20:48.718Z,11.50
2023-12-12T09:23:18.170Z,11.60
2023-12-12T09:25:45.476Z,11.60
2023-12-12T09:28:13.192Z,11.70
2023-12-12T09:30:41.388Z,11.70
2023-12-12T09:33:11.436Z,11.70
2023-12-12T09:35:39.081Z,11.80
2023-12-12T09:38:06.697Z,11.80
2023-12-12T09:40:38.391Z,11.90
2023-12-12T09:43:07.490Z,11.90
2023-12-12T09:45:35.338Z,12.00
2023-12-12T09:48:05.644Z,12.10
2023-12-12T09:50:36.598Z,12.10
2023-12-12T09:53:04.456Z,12.20
2023-12-12T09:55:34.771Z,12.30
2023-12-12T09:58:02.185Z,12.40
2023-12-12T10:00:29.357Z,12.50
2023-12-12T10:03:05.523Z,12.60
2023-12-12T10:05:39.430Z,12.70
2023-12-12T10:08:14.151Z,12.70
2023-12-12T10:10:45.191Z,12.80
2023-12-12T10:13:12.909Z,12.90
2023-12-12T10:15:40.236Z,12.90
2023-12-12T10:18:07.725Z,13.00
2023-12-12T10:20:36.803Z,13.00
2023-12-12T10:23:06.800Z,13.10
2023-12-12T10:25:36.728Z,13.20
2023-12-12T10:28:04.914Z,13.30
2023-12-12T10:30:32.279Z,13.30
2023-12-12T10:32:59.570Z,13.40
2023-12-12T10:35:27.040Z,13.50
2023-12-12T10:37:54.722Z,13.60
2023-12-12T10:40:24.527Z,13.60
2023-12-12T10:42:56.327Z,13.70
2023-12-12T10:45:25.971Z,13.80
2023-12-12T10:47:55.172Z,13.80
2023-12-12T10:50:24.682Z,13.90
2023-12-12T10:52:54.564Z,14.00
2023-12-12T10:55:23.619Z,14.00
2023-12-12T10:57:51.436Z,14.10
2023-12-12T11:00:22.304Z,14.10
2023-12-12T11:02:50.045Z,14.20
2023-12-12T11:05:18.480Z,14.30
2023-12-12T11:07:49.077Z,14.40
2023-12-12T11:10:21.446Z,14.50
2023-12-12T11:13:02.060Z,14.60
2023-12-12T11:15:31.375Z,14.60
2023-12-12T11:17:58.992Z,14.70
2023-12-12T11:20:26.559Z,14.70
2023-12-12T11:22:54.951Z,14.70
2023-12-12T11:25:24.287Z,14.80
2023-12-12T11:27:55.352Z,14.80
2023-12-12T11:30:33.440Z,14.80
2023-12-12T11:33:02.222Z,14.80
2023-12-12T11:35:39.016Z,14.80
2023-12-12T11:38:26.162Z,14.70
2023-12-12T11:41:15.991Z,14.70
2023-12-12T11:43:43.631Z,14.70
2023-12-12T11:46:22.852Z,14.70
2023-12-12T11:48:50.778Z,14.60
2023-12-12T11:51:36.258Z,14.60
2023-12-12T11:55:18.345Z,14.60
2023-12-12T11:57:46.564Z,14.60
2023-12-12T12:00:22.084Z,14.60
2023-12-12T12:02:49.875Z,14.60
2023-12-12T12:05:17.388Z,14.60
2023-12-12T12:07:44.694Z,14.60
2023-12-12T12:10:11.981Z,14.60
2023-12-12T12:12:39.267Z,14.50
2023-12-12T12:15:08.253Z,14.50
2023-12-12T12:17:36.625Z,14.50
2023-12-12T12:20:07.404Z,14.50
2023-12-12T12:22:44.201Z,14.50
2023-12-12T12:25:12.013Z,14.40
2023-12-12T12:27:56.498Z,14.40
2023-12-12T12:30:25.216Z,14.30
2023-12-12T12:33:06.514Z,14.30
2023-12-12T12:35:37.196Z,14.20
2023-12-12T12:38:33.475Z,14.10
2023-12-12T12:41:00.965Z,14.10
2023-12-12T12:43:28.390Z,14.00
2023-12-12T12:46:00.374Z,14.00
2023-12-12T12:48:31.131Z,13.90
2023-12-12T12:50:59.039Z,13.90
2023-12-12T12:53:29.259Z,13.80
2023-12-12T12:55:57.014Z,13.70
2023-12-12T12:58:30.518Z,13.70
2023-12-12T13:00:58.040Z,13.70
2023-12-12T13:03:25.280Z,13.60
2023-12-12T13:05:52.996Z,13.60
2023-12-12T13:08:20.388Z,13.50
2023-12-12T13:10:51.003Z,13.40
2023-12-12T13:13:22.484Z,13.40
2023-12-12T13:15:50.362Z,13.30
2023-12-12T13:18:20.873Z,13.20
2023-12-12T13:20:48.877Z,13.10
2023-12-12T13:23:16.620Z,13.10
2023-12-12T13:25:44.825Z,13.00
2023-12-12T13:28:12.511Z,13.00
2023-12-12T13:30:39.783Z,12.90
2023-12-12T13:33:11.570Z,12.90
2023-12-12T13:35:39.092Z,12.90
2023-12-12T13:38:06.825Z,12.90
2023-12-12T13:40:34.887Z,12.80
2023-12-12T13:43:02.434Z,12.80
2023-12-12T13:45:29.663Z,12.80
2023-12-12T13:47:57.067Z,12.80
2023-12-12T13:50:28.308Z,12.70
2023-12-12T13:52:55.552Z,12.70
2023-12-12T13:55:23.341Z,12.70
2023-12-12T13:57:50.639Z,12.70
2023-12-12T14:00:20.743Z,12.70
2023-12-12T14:02:48.540Z,12.70
2023-12-12T14:06:11.965Z,12.70
2023-12-12T14:08:39.274Z,12.70
2023-12-12T14:11:06.610Z,12.70
2023-12-12T14:13:34.510Z,12.70
2023-12-12T14:16:03.794Z,12.70
2023-12-12T14:18:31.095Z,12.70
2023-12-12T14:20:58.266Z,12.70
2023-12-12T14:23:25.625Z,12.70
2023-12-12T14:25:55.238Z,12.70
2023-12-12T14:28:22.687Z,12.80
2023-12-12T14:30:50.608Z,12.70
2023-12-12T14:33:19.664Z,12.80
2023-12-12T14:35:47.488Z,12.80
2023-12-12T14:38:14.950Z,12.90
2023-12-12T14:40:42.532Z,12.90
2023-12-12T14:43:09.840Z,12.90
2023-12-12T14:45:37.042Z,12.90
2023-12-12T14:48:04.572Z,13.00
2023-12-12T14:50:31.762Z,12.90
2023-12-12T14:52:59.278Z,13.00
2023-12-12T14:55:26.522Z,13.00
2023-12-12T14:57:54.281Z,13.00
2023-12-12T15:00:27.056Z,13.00
2023-12-12T15:02:55.399Z,13.00
2023-12-12T15:05:22.846Z,13.00
2023-12-12T15:07:50.238Z,13.00
2023-12-12T15:10:17.557Z,13.00
2023-12-12T15:12:44.973Z,13.00
2023-12-12T15:15:12.519Z,13.00
2023-12-12T15:17:40.195Z,13.00
2023-12-12T15:20:10.129Z,13.00
2023-12-12T15:22:37.658Z,13.00
2023-12-12T15:25:06.948Z,13.00
2023-12-12T15:27:34.402Z,13.00
2023-12-12T15:31:16.948Z,13.00
2023-12-12T15:33:47.461Z,13.00
2023-12-12T15:36:14.868Z,13.00
2023-12-12T15:38:42.021Z,13.00
2023-12-12T15:41:09.508Z,13.00
2023-12-12T15:43:36.699Z,13.00
2023-12-12T15:46:04.113Z,13.10
2023-12-12T15:48:31.400Z,13.10
2023-12-12T15:51:01.475Z,13.10
2023-12-12T15:53:47.414Z,13.10
2023-12-12T15:56:14.843Z,13.10
2023-12-12T15:58:42.069Z,13.10
2023-12-12T16:01:12.752Z,13.10
2023-12-12T16:03:39.990Z,13.10
2023-12-12T16:06:08.242Z,13.10
2023-12-12T16:08:35.649Z,13.10
2023-12-12T16:11:42.505Z,13.10
2023-12-12T16:14:09.663Z,13.10
2023-12-12T16:16:37.818Z,13.10
2023-12-12T16:19:08.508Z,13.10
2023-12-12T16:21:38.561Z,13.10
2023-12-12T16:24:09.656Z,13.10
2023-12-12T16:26:36.976Z,13.10
2023-12-12T16:29:04.744Z,13.10
2023-12-12T16:31:32.043Z,13.00
2023-12-12T16:33:59.699Z,13.00
2023-12-12T16:36:29.568Z,13.00
2023-12-12T16:39:07.361Z,13.00
2023-12-12T16:41:37.173Z,13.00
2023-12-12T16:44:05.766Z,12.90
2023-12-12T16:46:33.067Z,12.90
2023-12-12T16:49:02.184Z,12.90
2023-12-12T16:51:29.506Z,12.90
2023-12-12T16:54:01.054Z,12.80
2023-12-12T16:56:28.267Z,12.80
2023-12-12T16:58:57.814Z,12.80
2023-12-12T17:01:25.404Z,12.80
2023-12-12T17:03:52.988Z,12.80
2023-12-12T17:06:20.375Z,12.70
2023-12-12T17:08:49.620Z,12.70
2023-12-12T17:11:16.759Z,12.70
2023-12-12T17:13:44.054Z,12.70
2023-12-12T17:16:12.771Z,12.80
2023-12-12T17:18:40.259Z,12.80
2023-12-12T17:21:07.699Z,12.80
2023-12-12T17:23:37.494Z,12.90
2023-12-12T17:26:05.761Z,13.00
2023-12-12T17:28:33.273Z,13.00
2023-12-12T17:31:02.661Z,13.00
2023-12-12T17:33:30.247Z,13.10
2023-12-12T17:35:57.532Z,13.10
2023-12-12T17:38:24.824Z,13.00
2023-12-12T17:40:52.139Z,12.90
2023-12-12T17:43:19.470Z,12.90
2023-12-12T17:45:48.721Z,12.80
2023-12-12T17:48:19.859Z,12.80
2023-12-12T17:50:48.386Z,12.70
2023-12-12T17:53:15.767Z,12.70
2023-12-12T17:55:43.240Z,12.70
2023-12-12T17:58:10.693Z,12.70
2023-12-12T18:00:38.379Z,12.60
2023-12-12T18:03:07.575Z,12.60
2023-12-12T18:05:43.463Z,12.60
2023-12-12T18:09:07.092Z,12.60
2023-12-12T18:11:34.440Z,12.60
2023-12-12T18:14:05.781Z,12.60
2023-12-12T18:16:33.065Z,12.60
2023-12-12T18:19:00.237Z,12.50
2023-12-12T18:21:27.933Z,12.50
2023-12-12T18:23:55.366Z,12.50
2023-12-12T18:26:29.703Z,12.50
2023-12-12T18:29:01.761Z,12.40
2023-12-12T18:31:31.603Z,12.40
2023-12-12T18:34:00.164Z,12.40
2023-12-12T18:36:28.677Z,12.40
2023-12-12T18:38:59.002Z,12.30
2023-12-12T18:41:26.396Z,12.30
2023-12-12T18:43:54.210Z,12.30
2023-12-12T18:46:21.643Z,12.30
2023-12-12T18:48:49.786Z,12.30
2023-12-12T18:51:17.136Z,12.30
2023-12-12T18:53:44.644Z,12.20
2023-12-12T18:56:15.832Z,12.20
2023-12-12T18:58:43.997Z,12.20
2023-12-12T19:01:13.534Z,12.20
2023-12-12T19:03:41.620Z,12.20
2023-12-12T19:06:09.558Z,12.20
2023-12-12T19:08:37.172Z,12.20
2023-12-12T19:11:04.958Z,12.20
2023-12-12T19:13:35.213Z,12.20
2023-12-12T19:16:04.694Z,12.20
2023-12-12T19:20:59.378Z,12.10
2023-12-12T19:23:28.928Z,12.10
2023-12-12T19:25:59.400Z,12.10
2023-12-12T19:28:29.720Z,12.10
2023-12-12T19:30:57.172Z,12.00
2023-12-12T19:33:26.137Z,12.00
2023-12-12T19:35:54.353Z,12.00
2023-12-12T19:38:22.492Z,12.00
2023-12-12T19:40:51.170Z,12.00
2023-12-12T19:43:19.071Z,12.00
2023-12-12T19:45:49.364Z,12.00
2023-12-12T19:48:40.727Z,12.00
2023-12-12T19:51:08.231Z,12.00
2023-12-12T19:53:36.185Z,12.00
2023-12-12T19:56:03.327Z,12.00
2023-12-12T19:58:31.312Z,11.90
2023-12-12T20:00:58.951Z,11.90
2023-12-12T20:03:29.183Z,11.90
2023-12-12T20:05:57.044Z,11.90
2023-12-12T20:08:24.430Z,11.80
2023-12-12T20:10:54.067Z,11.80
2023-12-12T20:13:21.606Z,11.80
2023-12-12T20:15:51.911Z,11.70
2023-12-12T20:18:20.280Z,11.70
2023-12-12T20:20:47.423Z,11.70
2023-12-12T20:23:15.056Z,11.70
2023-12-12T20:25:42.366Z,11.70
2023-12-12T20:28:09.792Z,11.60
2023-12-12T20:30:39.232Z,11.60
2023-12-12T20:33:06.801Z,11.60
2023-12-12T20:35:34.085Z,11.70
2023-12-12T20:38:01.547Z,11.70
2023-12-12T20:40:28.802Z,11.70
2023-12-12T20:42:56.256Z,11.80
2023-12-12T20:45:23.704Z,11.80
2023-12-12T20:47:50.901Z,11.80
2023-12-12T20:50:18.358Z,11.90
2023-12-12T20:52:46.554Z,11.90
2023-12-12T20:55:14.099Z,12.00
2023-12-12T20:57:42.220Z,12.00
2023-12-12T21:00:10.973Z,12.10
2023-12-12T21:02:38.881Z,12.10
2023-12-12T21:05:07.380Z,12.20
2023-12-12T21:07:34.883Z,12.20
2023-12-12T21:10:02.979Z,12.20
2023-12-12T21:12:31.551Z,12.20
2023-12-12T21:14:58.708Z,12.30
2023-12-12T21:17:28.821Z,12.30
2023-12-12T21:19:59.278Z,12.30
2023-12-12T21:22:26.904Z,12.40
2023-12-12T21:24:54.136Z,12.40
2023-12-12T21:27:21.498Z,12.40
2023-12-12T21:29:48.976Z,12.40
2023-12-12T21:32:16.361Z,12.40
2023-12-12T21:34:49.181Z,12.50
2023-12-12T21:37:19.348Z,12.50
2023-12-12T21:39:46.845Z,12.50
2023-12-12T21:42:14.349Z,12.50
2023-12-12T21:44:41.567Z,12.50
2023-12-12T21:47:08.676Z,12.50
2023-12-12T21:49:36.926Z,12.50
2023-12-12T21:52:04.571Z,12.50
2023-12-12T21:54:31.751Z,12.50
2023-12-12T21:57:36.341Z,12.50
2023-12-12T22:00:07.925Z,12.50
2023-12-12T22:02:35.154Z,12.50
2023-12-12T22:05:02.611Z,12.50
2023-12-12T22:07:30.355Z,12.50
2023-12-12T22:09:57.914Z,12.50
2023-12-12T22:12:26.162Z,12.50
2023-12-12T22:14:53.408Z,12.60
2023-12-12T22:17:25.873Z,12.50
2023-12-12T22:20:02.006Z,12.50
2023-12-12T22:22:33.593Z,12.50
2023-12-12T22:25:01.081Z,12.50
2023-12-12T22:27:28.265Z,12.50
2023-12-12T22:29:55.795Z,12.50
2023-12-12T22:32:27.553Z,12.60
2023-12-12T22:34:58.074Z,12.50
2023-12-12T22:37:25.594Z,12.50
2023-12-12T22:39:52.928Z,12.50
2023-12-12T22:42:20.108Z,12.50
2023-12-12T22:47:37.687Z,12.50
2023-12-12T23:37:37.904Z,11.70
2023-12-12T23:40:07.385Z,11.70
2023-12-12T23:42:35.051Z,11.60
2023-12-12T23:45:05.812Z,11.60
2023-12-12T23:47:34.013Z,11.60
2023-12-12T23:50:02.014Z,11.60
2023-12-12T23:52:29.335Z,11.50
2023-12-12T23:54:56.658Z,11.50
2023-12-12T23:57:24.009Z,11.50
2023-12-12T23:59:51.430Z,11.40
